FYKT/KMP METAR and TAF weather

Enter ICAO airport designator
Station Type Date Time Source
FYKT METAR 2021/01/15 16:00 UTC NOAA

FYKT 151600Z 22012KT 9999 FEW040CB 29/16 Q1011


Station Type Date Time Source
FYKT Decoded METAR 2021/01/15 16:00 UTC NOAA

Keetmanshoop, Namibia (FYKT) 26-32S 018-07E 1100M
Jan 15, 2021 - 11:00 AM EST / 2021.01.15 1600 UTC
Wind: from the SW (220 degrees) at 14 MPH (12 KT):0
Visibility: greater than 7 mile(s):0
Sky conditions: mostly clear
Weather: Cumulonimbus clouds observed
Temperature: 84 F (29 C)
Dew Point: 60 F (16 C)
Relative Humidity: 45%
Pressure (altimeter): 29.85 in. Hg (1011 hPa)
ob: FYKT 151600Z 22012KT 9999 FEW040CB 29/16 Q1011
cycle: 16

Station Type Date Time Source
FYKT TAF 2021/01/15 18:28 UTC NOAA

TAF FYKT 151600Z 1518/1618 21003KT 9999 FEW040TCU
BECMG 1520/1522 NSC

Example: see airport list